createdAt,value
2023-02-10T00:00:30.000Z,1026
2023-02-10T00:01:47.000Z,1026
2023-02-10T00:03:03.000Z,1026.1
2023-02-10T00:04:19.000Z,1026
2023-02-10T00:05:35.000Z,1026
2023-02-10T00:06:51.000Z,1026
2023-02-10T00:08:08.000Z,1026.1
2023-02-10T00:09:24.000Z,1026.1
2023-02-10T00:10:39.000Z,1026.1
2023-02-10T00:11:55.000Z,1026.1
2023-02-10T00:13:11.000Z,1026.1
2023-02-10T00:14:28.000Z,1026.1
2023-02-10T00:15:44.000Z,1026.1
2023-02-10T00:17:00.000Z,1026.2
2023-02-10T00:18:16.000Z,1026.1
2023-02-10T00:19:32.000Z,1026.1
2023-02-10T00:20:49.000Z,1026.1
2023-02-10T00:22:05.000Z,1026.2
2023-02-10T00:23:21.000Z,1026.1
2023-02-10T00:24:37.000Z,1026.1
2023-02-10T00:25:53.000Z,1026.2
2023-02-10T00:27:09.000Z,1026.2
2023-02-10T00:28:25.000Z,1026.2
2023-02-10T00:29:41.000Z,1026.2
2023-02-10T00:30:57.603Z,1026.2
2023-02-10T00:32:13.802Z,1026.2
2023-02-10T00:33:30.000Z,1026.2
2023-02-10T00:34:46.000Z,1026.1
2023-02-10T00:36:02.000Z,1026.2
2023-02-10T00:37:18.000Z,1026.2
2023-02-10T00:38:34.000Z,1026.2
2023-02-10T00:39:51.000Z,1026.2
2023-02-10T00:41:07.000Z,1026.3
2023-02-10T00:42:23.000Z,1026.3
2023-02-10T00:43:38.000Z,1026.2
2023-02-10T00:44:54.000Z,1026.2
2023-02-10T00:46:11.000Z,1026.2
2023-02-10T00:47:27.000Z,1026.2
2023-02-10T00:48:43.000Z,1026.2
2023-02-10T00:49:59.000Z,1026.2
2023-02-10T00:51:15.000Z,1026.2
2023-02-10T00:52:31.000Z,1026.3
2023-02-10T00:53:48.000Z,1026.3
2023-02-10T00:55:04.000Z,1026.3
2023-02-10T00:56:20.000Z,1026.3
2023-02-10T00:57:36.000Z,1026.3
2023-02-10T00:58:52.000Z,1026.3
2023-02-10T01:00:08.000Z,1026.3
2023-02-10T01:01:24.000Z,1026.3
2023-02-10T01:02:40.000Z,1026.3
2023-02-10T01:03:56.000Z,1026.3
2023-02-10T01:05:12.000Z,1026.3
2023-02-10T01:06:29.000Z,1026.3
2023-02-10T01:07:45.000Z,1026.4
2023-02-10T01:09:01.000Z,1026.3
2023-02-10T01:10:17.703Z,1026.2
2023-02-10T01:11:33.000Z,1026.3
2023-02-10T01:12:50.000Z,1026.3
2023-02-10T01:14:06.000Z,1026.3
2023-02-10T01:15:22.000Z,1026.3
2023-02-10T01:16:37.000Z,1026.3
2023-02-10T01:17:53.000Z,1026.3
2023-02-10T01:19:10.000Z,1026.4
2023-02-10T01:20:26.000Z,1026.4
2023-02-10T01:21:42.000Z,1026.4
2023-02-10T01:22:58.000Z,1026.4
2023-02-10T01:24:14.000Z,1026.5
2023-02-10T01:25:31.000Z,1026.4
2023-02-10T01:26:47.000Z,1026.4
2023-02-10T01:28:03.000Z,1026.5
2023-02-10T01:29:19.000Z,1026.5
2023-02-10T01:30:35.000Z,1026.5
2023-02-10T01:31:52.000Z,1026.5
2023-02-10T01:33:07.000Z,1026.5
2023-02-10T01:34:23.000Z,1026.5
2023-02-10T01:35:39.000Z,1026.5
2023-02-10T01:36:55.000Z,1026.5
2023-02-10T01:38:12.000Z,1026.5
2023-02-10T01:39:28.000Z,1026.5
2023-02-10T01:40:44.000Z,1026.5
2023-02-10T01:42:00.000Z,1026.5
2023-02-10T01:43:16.000Z,1026.6
2023-02-10T01:44:33.000Z,1026.6
2023-02-10T01:45:49.000Z,1026.6
2023-02-10T01:47:05.000Z,1026.6
2023-02-10T01:48:21.595Z,1026.6
2023-02-10T01:49:36.000Z,1026.6
2023-02-10T01:50:53.000Z,1026.6
2023-02-10T01:52:09.000Z,1026.6
2023-02-10T01:53:25.000Z,1026.5
2023-02-10T01:54:41.000Z,1026.5
2023-02-10T01:55:57.000Z,1026.6
2023-02-10T01:57:14.000Z,1026.5
2023-02-10T01:58:30.000Z,1026.5
2023-02-10T01:59:46.363Z,1026.5
2023-02-10T02:01:02.558Z,1026.5
2023-02-10T02:02:18.000Z,1026.6
2023-02-10T02:03:35.000Z,1026.5
2023-02-10T02:04:51.000Z,1026.6
2023-02-10T02:06:06.000Z,1026.5
2023-02-10T02:07:22.000Z,1026.5
2023-02-10T02:08:38.000Z,1026.5
2023-02-10T02:09:55.000Z,1026.5
2023-02-10T02:11:11.000Z,1026.5
2023-02-10T02:12:27.000Z,1026.5
2023-02-10T02:13:43.000Z,1026.6
2023-02-10T02:14:59.000Z,1026.5
2023-02-10T02:16:15.000Z,1026.6
2023-02-10T02:17:32.000Z,1026.6
2023-02-10T02:18:48.000Z,1026.6
2023-02-10T02:20:04.000Z,1026.6
2023-02-10T02:21:20.000Z,1026.6
2023-02-10T02:22:35.000Z,1026.6
2023-02-10T02:23:52.000Z,1026.6
2023-02-10T02:25:08.000Z,1026.6
2023-02-10T02:26:24.508Z,1026.6
2023-02-10T02:27:40.000Z,1026.6
2023-02-10T02:28:56.000Z,1026.7
2023-02-10T02:30:13.000Z,1026.7
2023-02-10T02:31:29.000Z,1026.7
2023-02-10T02:32:45.000Z,1026.7
2023-02-10T02:34:01.000Z,1026.7
2023-02-10T02:35:17.000Z,1026.7
2023-02-10T02:36:34.000Z,1026.6
2023-02-10T02:37:50.000Z,1026.7
2023-02-10T02:39:05.477Z,1026.7
2023-02-10T02:40:21.000Z,1026.7
2023-02-10T02:41:37.000Z,1026.7
2023-02-10T02:42:54.000Z,1026.6
2023-02-10T02:44:10.000Z,1026.6
2023-02-10T02:45:26.000Z,1026.6
2023-02-10T02:46:42.000Z,1026.6
2023-02-10T02:47:58.000Z,1026.6
2023-02-10T02:49:15.000Z,1026.6
2023-02-10T02:50:31.000Z,1026.7
2023-02-10T02:51:47.000Z,1026.7
2023-02-10T02:53:03.000Z,1026.6
2023-02-10T02:54:19.000Z,1026.7
2023-02-10T02:55:35.000Z,1026.6
2023-02-10T02:56:51.000Z,1026.7
2023-02-10T02:58:07.000Z,1026.6
2023-02-10T02:59:23.000Z,1026.6
2023-02-10T03:00:39.000Z,1026.6
2023-02-10T03:01:56.000Z,1026.6
2023-02-10T03:03:11.000Z,1026.6
2023-02-10T03:04:27.429Z,1026.6
2023-02-10T03:05:43.000Z,1026.6
2023-02-10T03:06:59.000Z,1026.6
2023-02-10T03:08:16.000Z,1026.6
2023-02-10T03:09:32.000Z,1026.6
2023-02-10T03:10:48.000Z,1026.6
2023-02-10T03:12:04.000Z,1026.6
2023-02-10T03:13:20.000Z,1026.6
2023-02-10T03:14:37.000Z,1026.6
2023-02-10T03:15:53.000Z,1026.6
2023-02-10T03:17:09.000Z,1026.5
2023-02-10T03:18:25.000Z,1026.6
2023-02-10T03:19:40.000Z,1026.5
2023-02-10T03:20:57.000Z,1026.5
2023-02-10T03:22:13.000Z,1026.5
2023-02-10T03:23:29.000Z,1026.6
2023-02-10T03:24:45.000Z,1026.6
2023-02-10T03:26:01.000Z,1026.6
2023-02-10T03:27:18.000Z,1026.5
2023-02-10T03:28:34.000Z,1026.6
2023-02-10T03:29:50.357Z,1026.6
2023-02-10T03:31:06.000Z,1026.5
2023-02-10T03:32:22.000Z,1026.5
2023-02-10T03:33:39.000Z,1026.6
2023-02-10T03:34:55.000Z,1026.5
2023-02-10T03:36:10.000Z,1026.5
2023-02-10T03:37:26.000Z,1026.6
2023-02-10T03:38:42.762Z,1026.6
2023-02-10T03:39:58.000Z,1026.6
2023-02-10T03:41:15.000Z,1026.5
2023-02-10T03:42:31.000Z,1026.5
2023-02-10T03:43:47.000Z,1026.6
2023-02-10T03:45:03.000Z,1026.6
2023-02-10T03:46:19.934Z,1026.6
2023-02-10T03:47:36.000Z,1026.6
2023-02-10T03:48:52.000Z,1026.6
2023-02-10T03:50:08.000Z,1026.6
2023-02-10T03:51:24.000Z,1026.6
2023-02-10T03:52:39.000Z,1026.6
2023-02-10T03:53:56.000Z,1026.6
2023-02-10T03:55:12.000Z,1026.6
2023-02-10T03:56:28.000Z,1026.5
2023-02-10T03:57:44.000Z,1026.6
2023-02-10T03:59:00.000Z,1026.6
2023-02-10T04:00:17.000Z,1026.7
2023-02-10T04:01:33.000Z,1026.6
2023-02-10T04:02:49.000Z,1026.6
2023-02-10T04:04:05.000Z,1026.6
2023-02-10T04:05:21.000Z,1026.5
2023-02-10T04:06:38.000Z,1026.6
2023-02-10T04:07:54.278Z,1026.6
2023-02-10T04:09:09.000Z,1026.6
2023-02-10T04:10:25.000Z,1026.6
2023-02-10T04:11:41.000Z,1026.6
2023-02-10T04:12:58.000Z,1026.6
2023-02-10T04:14:14.000Z,1026.7
2023-02-10T04:15:30.000Z,1026.7
2023-02-10T04:16:46.000Z,1026.7
2023-02-10T04:18:02.000Z,1026.8
2023-02-10T04:19:19.000Z,1026.8
2023-02-10T04:20:35.000Z,1026.8
2023-02-10T04:21:51.000Z,1026.7
2023-02-10T04:23:07.000Z,1026.8
2023-02-10T04:24:23.000Z,1026.8
2023-02-10T04:25:39.000Z,1026.8
2023-02-10T04:26:55.000Z,1026.7
2023-02-10T04:28:11.000Z,1026.8
2023-02-10T04:29:27.000Z,1026.8
2023-02-10T04:30:43.000Z,1026.8
2023-02-10T04:32:00.000Z,1026.9
2023-02-10T04:33:16.000Z,1026.8
2023-02-10T04:34:32.000Z,1026.8
2023-02-10T04:35:48.000Z,1026.8
2023-02-10T04:37:04.000Z,1026.8
2023-02-10T04:38:21.000Z,1026.8
2023-02-10T04:39:37.000Z,1026.8
2023-02-10T04:40:53.000Z,1026.8
2023-02-10T04:42:08.000Z,1026.8
2023-02-10T04:43:24.000Z,1026.8
2023-02-10T04:44:41.000Z,1026.8
2023-02-10T04:45:57.196Z,1026.8
2023-02-10T04:47:13.000Z,1026.8
2023-02-10T04:48:29.000Z,1026.8
2023-02-10T04:49:45.000Z,1026.8
2023-02-10T04:51:02.000Z,1026.8
2023-02-10T04:52:18.000Z,1026.8
2023-02-10T04:53:34.000Z,1026.8
2023-02-10T04:54:50.000Z,1026.8
2023-02-10T04:56:06.000Z,1026.7
2023-02-10T04:57:23.000Z,1026.8
2023-02-10T04:58:38.000Z,1026.8
2023-02-10T04:59:54.000Z,1026.8
2023-02-10T05:01:10.000Z,1026.8
2023-02-10T05:02:26.751Z,1026.8
2023-02-10T05:03:43.000Z,1026.7
2023-02-10T05:04:59.000Z,1026.8
2023-02-10T05:06:15.000Z,1026.8
2023-02-10T05:07:31.000Z,1026.9
2023-02-10T05:08:47.000Z,1026.8
2023-02-10T05:10:03.000Z,1026.8
2023-02-10T05:11:20.000Z,1026.8
2023-02-10T05:12:36.000Z,1026.9
2023-02-10T05:13:52.000Z,1026.9
2023-02-10T05:15:07.000Z,1026.8
2023-02-10T05:16:23.000Z,1026.9
2023-02-10T05:17:40.000Z,1027
2023-02-10T05:18:56.000Z,1027
2023-02-10T05:20:12.000Z,1027
2023-02-10T05:21:28.000Z,1027
2023-02-10T05:22:44.000Z,1027
2023-02-10T05:24:01.106Z,1027.1
2023-02-10T05:25:17.000Z,1027
2023-02-10T05:26:33.000Z,1027.1
2023-02-10T05:27:49.000Z,1027.1
2023-02-10T05:29:05.000Z,1027.2
2023-02-10T05:30:22.000Z,1027.1
2023-02-10T05:31:37.000Z,1027.1
2023-02-10T05:32:53.000Z,1027.1
2023-02-10T05:34:09.000Z,1027.2
2023-02-10T05:35:25.000Z,1027.1
2023-02-10T05:36:42.000Z,1027.1
2023-02-10T05:37:58.000Z,1027.1
2023-02-10T05:39:14.000Z,1027
2023-02-10T05:40:30.000Z,1027.1
2023-02-10T05:41:46.000Z,1027
2023-02-10T05:43:03.000Z,1027.1
2023-02-10T05:44:19.000Z,1027.1
2023-02-10T05:45:35.000Z,1027.1
2023-02-10T05:46:51.654Z,1027.1
2023-02-10T05:48:06.000Z,1027.1
2023-02-10T05:49:23.000Z,1027.1
2023-02-10T05:50:39.000Z,1027.1
2023-02-10T05:51:55.000Z,1027.1
2023-02-10T05:53:11.000Z,1027.2
2023-02-10T05:54:27.000Z,1027.2
2023-02-10T05:55:44.000Z,1027.2
2023-02-10T05:57:00.000Z,1027.2
2023-02-10T05:58:16.000Z,1027.2
2023-02-10T05:59:32.000Z,1027.1
2023-02-10T06:00:48.000Z,1027.3
2023-02-10T06:02:05.000Z,1027.2
2023-02-10T06:03:21.000Z,1027.2
2023-02-10T06:04:36.000Z,1027.3
2023-02-10T06:05:52.000Z,1027.3
2023-02-10T06:07:08.000Z,1027.3
2023-02-10T06:08:25.000Z,1027.3
2023-02-10T06:09:41.000Z,1027.3
2023-02-10T06:10:57.000Z,1027.4
2023-02-10T06:12:13.000Z,1027.4
2023-02-10T06:13:29.000Z,1027.4
2023-02-10T06:14:45.975Z,1027.4
2023-02-10T06:16:02.000Z,1027.4
2023-02-10T06:17:18.000Z,1027.4
2023-02-10T06:18:34.000Z,1027.5
2023-02-10T06:19:50.000Z,1027.4
2023-02-10T06:21:05.984Z,1027.5
2023-02-10T06:22:22.000Z,1027.5
2023-02-10T06:23:38.376Z,1027.6
2023-02-10T06:24:54.000Z,1027.6
2023-02-10T06:26:10.000Z,1027.6
2023-02-10T06:27:27.000Z,1027.6
2023-02-10T06:28:43.000Z,1027.7
2023-02-10T06:29:59.000Z,1027.6
2023-02-10T06:31:15.000Z,1027.6
2023-02-10T06:32:31.000Z,1027.6
2023-02-10T06:33:48.000Z,1027.6
2023-02-10T06:35:04.000Z,1027.6
2023-02-10T06:36:20.000Z,1027.6
2023-02-10T06:37:35.000Z,1027.6
2023-02-10T06:38:51.000Z,1027.6
2023-02-10T06:40:07.932Z,1027.6
2023-02-10T06:41:24.000Z,1027.5
2023-02-10T06:42:40.000Z,1027.6
2023-02-10T06:43:56.000Z,1027.6
2023-02-10T06:45:12.000Z,1027.6
2023-02-10T06:46:28.000Z,1027.6
2023-02-10T06:47:45.000Z,1027.6
2023-02-10T06:49:01.000Z,1027.6
2023-02-10T06:50:17.000Z,1027.5
2023-02-10T06:51:33.697Z,1027.6
2023-02-10T06:52:49.903Z,1027.6
2023-02-10T06:54:05.000Z,1027.6
2023-02-10T06:55:21.000Z,1027.6
2023-02-10T06:56:37.000Z,1027.5
2023-02-10T06:57:53.000Z,1027.5
2023-02-10T06:59:09.899Z,1027.5
2023-02-10T07:00:26.000Z,1027.6
2023-02-10T07:01:42.000Z,1027.6
2023-02-10T07:02:58.000Z,1027.5
2023-02-10T07:04:14.000Z,1027.6
2023-02-10T07:05:30.000Z,1027.6
2023-02-10T07:06:47.000Z,1027.6
2023-02-10T07:08:03.000Z,1027.5
2023-02-10T07:09:19.000Z,1027.6
2023-02-10T07:10:34.000Z,1027.6
2023-02-10T07:11:50.000Z,1027.6
2023-02-10T07:13:07.000Z,1027.6
2023-02-10T07:14:23.000Z,1027.6
2023-02-10T07:15:39.000Z,1027.6
2023-02-10T07:16:55.000Z,1027.5
2023-02-10T07:18:10.000Z,1027.5
2023-02-10T07:19:27.000Z,1027.5
2023-02-10T07:20:43.000Z,1027.6
2023-02-10T07:21:59.000Z,1027.6
2023-02-10T07:23:15.000Z,1027.6
2023-02-10T07:24:31.000Z,1027.6
2023-02-10T07:25:48.000Z,1027.6
2023-02-10T07:27:04.000Z,1027.6
2023-02-10T07:28:20.000Z,1027.6
2023-02-10T07:29:36.000Z,1027.6
2023-02-10T07:30:52.809Z,1027.7
2023-02-10T07:32:09.000Z,1027.6
2023-02-10T07:33:25.000Z,1027.6
2023-02-10T07:34:40.000Z,1027.6
2023-02-10T07:35:56.000Z,1027.7
2023-02-10T07:37:12.000Z,1027.8
2023-02-10T07:38:29.000Z,1027.7
2023-02-10T07:39:45.000Z,1027.8
2023-02-10T07:41:01.000Z,1027.8
2023-02-10T07:42:17.000Z,1027.8
2023-02-10T07:43:33.000Z,1027.8
2023-02-10T07:44:50.000Z,1027.8
2023-02-10T07:46:06.149Z,1027.8
2023-02-10T07:47:22.000Z,1027.8
2023-02-10T07:48:38.000Z,1027.9
2023-02-10T07:49:54.731Z,1027.9
2023-02-10T07:51:10.000Z,1028
2023-02-10T07:52:26.126Z,1027.8
2023-02-10T07:53:42.000Z,1027.9
2023-02-10T07:54:58.000Z,1027.9
2023-02-10T07:56:14.000Z,1028
2023-02-10T07:57:30.000Z,1027.9
2023-02-10T07:58:47.000Z,1028
2023-02-10T08:00:03.000Z,1027.9
2023-02-10T08:01:19.000Z,1027.9
2023-02-10T08:02:35.000Z,1027.9
2023-02-10T08:03:51.000Z,1028
2023-02-10T08:05:08.000Z,1027.9
2023-02-10T08:06:24.000Z,1027.9
2023-02-10T08:07:39.000Z,1028
2023-02-10T08:08:55.675Z,1028
2023-02-10T08:10:11.000Z,1027.9
2023-02-10T08:11:28.000Z,1027.9
2023-02-10T08:12:44.000Z,1027.9
2023-02-10T08:14:00.000Z,1027.9
2023-02-10T08:15:16.000Z,1027.9
2023-02-10T08:16:32.840Z,1027.9
2023-02-10T08:17:49.000Z,1027.9
2023-02-10T08:19:05.000Z,1028
2023-02-10T08:20:21.000Z,1028
2023-02-10T08:21:37.000Z,1027.9
2023-02-10T08:22:53.000Z,1028
2023-02-10T08:24:09.000Z,1028
2023-02-10T08:25:25.000Z,1028
2023-02-10T08:26:41.000Z,1028
2023-02-10T08:27:57.000Z,1028.1
2023-02-10T08:29:13.000Z,1028.1
2023-02-10T08:30:29.982Z,1028.1
2023-02-10T08:31:46.000Z,1028.1
2023-02-10T08:33:02.000Z,1028
2023-02-10T08:34:18.000Z,1028.1
2023-02-10T08:35:34.000Z,1028.1
2023-02-10T08:36:50.956Z,1028.1
2023-02-10T08:38:07.000Z,1028.2
2023-02-10T08:39:23.000Z,1028.1
2023-02-10T08:40:38.000Z,1028.2
2023-02-10T08:41:54.000Z,1028.1
2023-02-10T08:43:11.000Z,1028.2
2023-02-10T08:44:27.000Z,1028.2
2023-02-10T08:45:43.000Z,1028.1
2023-02-10T08:46:59.000Z,1028.2
2023-02-10T08:48:15.000Z,1028.2
2023-02-10T08:49:31.000Z,1028.2
2023-02-10T08:50:48.000Z,1028.2
2023-02-10T08:52:04.000Z,1028.2
2023-02-10T08:53:20.000Z,1028.2
2023-02-10T08:54:36.683Z,1028.2
2023-02-10T08:55:52.871Z,1028.2
2023-02-10T08:57:08.000Z,1028.3
2023-02-10T08:58:24.000Z,1028.3
2023-02-10T08:59:40.476Z,1028.3
2023-02-10T09:00:56.000Z,1028.3
2023-02-10T09:02:12.000Z,1028.3
2023-02-10T09:03:29.000Z,1028.3
2023-02-10T09:04:45.000Z,1028.3
2023-02-10T09:06:01.000Z,1028.3
2023-02-10T09:07:17.000Z,1028.4
2023-02-10T09:08:33.000Z,1028.4
2023-02-10T09:09:50.000Z,1028.3
2023-02-10T09:11:06.000Z,1028.3
2023-02-10T09:12:22.405Z,1028.3
2023-02-10T09:13:37.000Z,1028.3
2023-02-10T09:14:53.000Z,1028.4
2023-02-10T09:16:10.000Z,1028.3
2023-02-10T09:17:26.000Z,1028.4
2023-02-10T09:18:42.000Z,1028.4
2023-02-10T09:19:58.000Z,1028.4
2023-02-10T09:21:14.000Z,1028.4
2023-02-10T09:22:31.000Z,1028.4
2023-02-10T09:23:47.000Z,1028.3
2023-02-10T09:25:03.000Z,1028.2
2023-02-10T09:26:19.000Z,1028.4
2023-02-10T09:27:35.000Z,1028.4
2023-02-10T09:28:52.000Z,1028.3
2023-02-10T09:30:07.000Z,1028.4
2023-02-10T09:31:23.000Z,1028.3
2023-02-10T09:32:39.000Z,1028.4
2023-02-10T09:33:55.000Z,1028.3
2023-02-10T09:35:11.000Z,1028.3
2023-02-10T09:36:28.000Z,1028.3
2023-02-10T09:37:44.312Z,1028.3
2023-02-10T09:39:00.000Z,1028.2
2023-02-10T09:40:16.000Z,1028.2
2023-02-10T09:41:32.000Z,1028.2
2023-02-10T09:42:49.078Z,1028.2
2023-02-10T09:44:05.000Z,1028.3
2023-02-10T09:45:21.000Z,1028.3
2023-02-10T09:46:36.000Z,1028.2
2023-02-10T09:47:52.000Z,1028.3
2023-02-10T09:49:09.000Z,1028.3
2023-02-10T09:50:25.000Z,1028.2
2023-02-10T09:51:41.000Z,1028.3
2023-02-10T09:52:57.656Z,1028.3
2023-02-10T09:54:13.000Z,1028.3
2023-02-10T09:55:30.000Z,1028.2
2023-02-10T09:56:46.000Z,1028.2
2023-02-10T09:58:02.000Z,1028.2
2023-02-10T09:59:18.000Z,1028.2
2023-02-10T10:00:34.000Z,1028.3
2023-02-10T10:01:51.000Z,1028.3
2023-02-10T10:03:06.000Z,1028.3
2023-02-10T10:04:22.416Z,1028.3
2023-02-10T10:05:38.000Z,1028.3
2023-02-10T10:06:54.000Z,1028.3
2023-02-10T10:08:11.000Z,1028.3
2023-02-10T10:09:27.000Z,1028.2
2023-02-10T10:10:43.000Z,1028.2
2023-02-10T10:11:59.000Z,1028.2
2023-02-10T10:13:15.000Z,1028.2
2023-02-10T10:14:32.000Z,1028.2
2023-02-10T10:15:48.000Z,1028.2
2023-02-10T10:17:04.000Z,1028.3
2023-02-10T10:18:20.000Z,1028.2
2023-02-10T10:19:35.000Z,1028.3
2023-02-10T10:20:52.000Z,1028.3
2023-02-10T10:22:08.000Z,1028.3
2023-02-10T10:23:24.000Z,1028.4
2023-02-10T10:24:40.000Z,1028.4
2023-02-10T10:25:56.000Z,1028.4
2023-02-10T10:27:12.000Z,1028.4
2023-02-10T10:28:29.092Z,1028.4
2023-02-10T10:29:45.000Z,1028.4
2023-02-10T10:31:01.000Z,1028.4
2023-02-10T10:32:17.000Z,1028.3
2023-02-10T10:33:33.000Z,1028.3
2023-02-10T10:34:50.000Z,1028.3
2023-02-10T10:36:05.000Z,1028.3
2023-02-10T10:37:21.000Z,1028.3
2023-02-10T10:38:37.000Z,1028.2
2023-02-10T10:39:53.000Z,1028.2
2023-02-10T10:41:10.000Z,1028.2
2023-02-10T10:42:26.000Z,1028.2
2023-02-10T10:43:42.000Z,1028.2
2023-02-10T10:44:58.000Z,1028.2
2023-02-10T10:46:14.000Z,1028.2
2023-02-10T10:47:31.000Z,1028.1
2023-02-10T10:48:47.000Z,1028.1
2023-02-10T10:50:03.000Z,1028.1
2023-02-10T10:51:19.000Z,1028
2023-02-10T10:52:34.000Z,1028
2023-02-10T10:53:51.000Z,1027.9
2023-02-10T10:55:07.000Z,1027.8
2023-02-10T10:56:23.000Z,1027.9
2023-02-10T10:57:39.000Z,1027.9
2023-02-10T10:58:55.000Z,1027.9
2023-02-10T11:00:12.000Z,1027.8
2023-02-10T11:01:28.000Z,1027.8
2023-02-10T11:02:44.000Z,1027.8
2023-02-10T11:04:00.545Z,1027.9
2023-02-10T11:05:16.000Z,1027.8
2023-02-10T11:06:32.939Z,1027.8
2023-02-10T11:07:49.000Z,1027.8
2023-02-10T11:09:04.000Z,1027.8
2023-02-10T11:10:20.000Z,1027.8
2023-02-10T11:11:36.000Z,1027.8
2023-02-10T11:12:52.000Z,1027.8
2023-02-10T11:14:09.000Z,1027.7
2023-02-10T11:15:25.000Z,1027.7
2023-02-10T11:16:41.000Z,1027.7
2023-02-10T11:17:57.000Z,1027.7
2023-02-10T11:19:13.880Z,1027.7
2023-02-10T11:20:30.000Z,1027.7
2023-02-10T11:21:46.000Z,1027.7
2023-02-10T11:23:02.000Z,1027.6
2023-02-10T11:24:18.000Z,1027.6
2023-02-10T11:25:33.000Z,1027.6
2023-02-10T11:26:50.000Z,1027.6
2023-02-10T11:28:06.000Z,1027.6
2023-02-10T11:29:22.000Z,1027.5
2023-02-10T11:30:38.000Z,1027.6
2023-02-10T11:31:54.000Z,1027.6
2023-02-10T11:33:10.000Z,1027.6
2023-02-10T11:34:26.000Z,1027.6
2023-02-10T11:35:42.000Z,1027.6
2023-02-10T11:36:58.000Z,1027.5
2023-02-10T11:38:14.000Z,1027.6
2023-02-10T11:39:31.000Z,1027.5
2023-02-10T11:40:47.212Z,1027.5
2023-02-10T11:42:03.000Z,1027.5
2023-02-10T11:43:19.599Z,1027.6
2023-02-10T11:44:35.794Z,1027.5
2023-02-10T11:45:52.000Z,1027.5
2023-02-10T11:47:08.000Z,1027.5
2023-02-10T11:48:24.000Z,1027.5
2023-02-10T11:49:39.000Z,1027.4
2023-02-10T11:50:55.000Z,1027.5
2023-02-10T11:52:12.000Z,1027.4
2023-02-10T11:53:28.000Z,1027.5
2023-02-10T11:54:44.000Z,1027.5
2023-02-10T11:56:00.000Z,1027.5
2023-02-10T11:57:16.741Z,1027.5
2023-02-10T11:58:33.000Z,1027.4
2023-02-10T11:59:49.000Z,1027.4
2023-02-10T12:01:05.324Z,1027.4
2023-02-10T12:02:21.000Z,1027.3
2023-02-10T12:03:37.000Z,1027.4
2023-02-10T12:04:53.000Z,1027.3
2023-02-10T12:06:09.000Z,1027.3
2023-02-10T12:07:25.000Z,1027.3
2023-02-10T12:08:41.000Z,1027.2
2023-02-10T12:09:57.000Z,1027.2
2023-02-10T12:11:13.000Z,1027.2
2023-02-10T12:12:30.000Z,1027.2
2023-02-10T12:13:46.000Z,1027.2
2023-02-10T12:15:02.000Z,1027.2
2023-02-10T12:16:18.000Z,1027.2
2023-02-10T12:17:34.000Z,1027.2
2023-02-10T12:18:51.000Z,1027.1
2023-02-10T12:20:07.000Z,1027.1
2023-02-10T12:21:23.000Z,1027
2023-02-10T12:22:38.641Z,1027
2023-02-10T12:23:54.000Z,1027
2023-02-10T12:25:11.000Z,1027
2023-02-10T12:26:27.000Z,1027
2023-02-10T12:27:43.000Z,1027
2023-02-10T12:28:59.000Z,1027
2023-02-10T12:30:15.000Z,1026.9
2023-02-10T12:31:32.000Z,1026.9
2023-02-10T12:32:48.000Z,1027.1
2023-02-10T12:34:04.000Z,1027
2023-02-10T12:35:20.000Z,1026.9
2023-02-10T12:36:36.000Z,1027
2023-02-10T12:37:53.000Z,1027
2023-02-10T12:39:08.000Z,1027
2023-02-10T12:40:24.000Z,1027
2023-02-10T12:41:40.000Z,1026.9
2023-02-10T12:42:56.000Z,1027
2023-02-10T12:44:13.000Z,1026.9
2023-02-10T12:45:29.000Z,1026.9
2023-02-10T12:46:45.000Z,1026.9
2023-02-10T12:48:01.517Z,1026.9
2023-02-10T12:49:17.000Z,1026.9
2023-02-10T12:50:33.000Z,1026.9
2023-02-10T12:51:50.000Z,1027
2023-02-10T12:53:06.000Z,1026.9
2023-02-10T12:54:22.000Z,1026.9
2023-02-10T12:55:37.000Z,1026.9
2023-02-10T12:56:53.000Z,1026.9
2023-02-10T12:58:10.000Z,1026.8
2023-02-10T12:59:26.000Z,1026.9
2023-02-10T13:00:42.468Z,1026.8
2023-02-10T13:01:58.000Z,1026.8
2023-02-10T13:03:14.000Z,1026.9
2023-02-10T13:04:31.000Z,1026.8
2023-02-10T13:05:47.000Z,1026.8
2023-02-10T13:07:03.000Z,1026.9
2023-02-10T13:08:19.000Z,1026.9
2023-02-10T13:09:35.000Z,1026.9
2023-02-10T13:10:52.000Z,1026.9
2023-02-10T13:12:07.000Z,1026.9
2023-02-10T13:13:23.000Z,1026.8
2023-02-10T13:14:39.000Z,1026.9
2023-02-10T13:15:55.000Z,1026.9
2023-02-10T13:17:12.000Z,1026.8
2023-02-10T13:18:28.000Z,1026.8
2023-02-10T13:19:44.000Z,1026.8
2023-02-10T13:21:00.000Z,1026.8
2023-02-10T13:22:16.000Z,1026.8
2023-02-10T13:23:33.000Z,1026.7
2023-02-10T13:24:49.000Z,1026.7
2023-02-10T13:26:05.351Z,1026.7
2023-02-10T13:27:21.000Z,1026.7
2023-02-10T13:28:36.000Z,1026.6
2023-02-10T13:29:53.000Z,1026.6
2023-02-10T13:31:09.000Z,1026.7
2023-02-10T13:32:25.000Z,1026.7
2023-02-10T13:33:41.000Z,1026.6
2023-02-10T13:34:57.000Z,1026.6
2023-02-10T13:36:14.000Z,1026.6
2023-02-10T13:37:30.000Z,1026.6
2023-02-10T13:38:46.000Z,1026.5
2023-02-10T13:40:02.000Z,1026.6
2023-02-10T13:41:18.000Z,1026.5
2023-02-10T13:42:34.000Z,1026.5
2023-02-10T13:43:51.000Z,1026.6
2023-02-10T13:45:06.000Z,1026.5
2023-02-10T13:46:22.000Z,1026.5
2023-02-10T13:47:38.000Z,1026.5
2023-02-10T13:48:54.000Z,1026.5
2023-02-10T13:50:11.000Z,1026.5
2023-02-10T13:51:27.256Z,1026.4
2023-02-10T13:52:43.000Z,1026.5
2023-02-10T13:53:59.000Z,1026.5
2023-02-10T13:55:15.000Z,1026.5
2023-02-10T13:56:32.000Z,1026.4
2023-02-10T13:57:48.000Z,1026.5
2023-02-10T13:59:04.000Z,1026.5
2023-02-10T14:00:20.000Z,1026.4
2023-02-10T14:01:35.886Z,1026.5
2023-02-10T14:02:52.000Z,1026.4
2023-02-10T14:04:08.000Z,1026.4
2023-02-10T14:05:24.000Z,1026.5
2023-02-10T14:06:40.000Z,1026.5
2023-02-10T14:07:56.000Z,1026.4
2023-02-10T14:09:13.000Z,1026.4
2023-02-10T14:10:29.000Z,1026.4
2023-02-10T14:11:45.419Z,1026.4
2023-02-10T14:13:01.000Z,1026.4
2023-02-10T14:14:17.000Z,1026.4
2023-02-10T14:15:34.010Z,1026.4
2023-02-10T14:16:50.204Z,1026.4
2023-02-10T14:18:05.000Z,1026.4
2023-02-10T14:19:21.612Z,1026.4
2023-02-10T14:20:37.000Z,1026.4
2023-02-10T14:21:54.000Z,1026.3
2023-02-10T14:23:10.000Z,1026.3
2023-02-10T14:24:26.000Z,1026.4
2023-02-10T14:25:42.000Z,1026.3
2023-02-10T14:26:58.000Z,1026.3
2023-02-10T14:28:14.000Z,1026.3
2023-02-10T14:29:31.000Z,1026.3
2023-02-10T14:30:47.000Z,1026.3
2023-02-10T14:32:03.000Z,1026.3
2023-02-10T14:33:19.000Z,1026.2
2023-02-10T14:34:34.000Z,1026.2
2023-02-10T14:35:51.000Z,1026.1
2023-02-10T14:37:07.000Z,1026.2
2023-02-10T14:38:23.000Z,1026.2
2023-02-10T14:39:39.000Z,1026.2
2023-02-10T14:40:55.000Z,1026.2
2023-02-10T14:42:12.000Z,1026.2
2023-02-10T14:43:28.000Z,1026.2
2023-02-10T14:44:44.000Z,1026.3
2023-02-10T14:46:00.000Z,1026.3
2023-02-10T14:47:16.000Z,1026.2
2023-02-10T14:48:33.000Z,1026.1
2023-02-10T14:49:49.000Z,1026.2
2023-02-10T14:51:04.000Z,1026.1
2023-02-10T14:52:20.000Z,1026.1
2023-02-10T14:53:36.000Z,1026.1
2023-02-10T14:54:53.046Z,1026
2023-02-10T14:56:09.000Z,1026
2023-02-10T14:57:25.000Z,1025.9
2023-02-10T14:58:41.000Z,1025.9
2023-02-10T14:59:57.000Z,1025.9
2023-02-10T15:01:14.000Z,1025.9
2023-02-10T15:02:30.000Z,1025.9
2023-02-10T15:03:46.000Z,1026
2023-02-10T15:05:02.000Z,1026
2023-02-10T15:06:18.000Z,1025.9
2023-02-10T15:07:34.000Z,1026
2023-02-10T15:08:50.000Z,1026
2023-02-10T15:10:06.000Z,1026
2023-02-10T15:11:22.000Z,1026
2023-02-10T15:12:38.000Z,1026
2023-02-10T15:13:54.000Z,1025.9
2023-02-10T15:15:11.000Z,1026
2023-02-10T15:16:27.000Z,1026
2023-02-10T15:17:43.551Z,1026
2023-02-10T15:18:59.000Z,1025.9
2023-02-10T15:20:15.931Z,1025.9
2023-02-10T15:21:32.000Z,1026
2023-02-10T15:22:48.000Z,1025.9
2023-02-10T15:24:03.000Z,1025.9
2023-02-10T15:25:19.000Z,1025.9
2023-02-10T15:26:35.000Z,1026
2023-02-10T15:27:52.000Z,1026
2023-02-10T15:29:08.000Z,1026
2023-02-10T15:30:24.000Z,1026
2023-02-10T15:31:40.000Z,1026.1
2023-02-10T15:32:56.898Z,1026
2023-02-10T15:34:13.000Z,1026
2023-02-10T15:36:45.000Z,1026
2023-02-10T15:38:01.000Z,1026
2023-02-10T15:39:17.000Z,1025.9
2023-02-10T15:40:33.000Z,1025.8
2023-02-10T15:41:49.000Z,1025.8
2023-02-10T15:43:05.000Z,1025.8
2023-02-10T15:44:21.000Z,1025.8
2023-02-10T15:45:37.000Z,1025.8
2023-02-10T15:46:54.000Z,1025.8
2023-02-10T15:48:09.000Z,1025.8
2023-02-10T15:49:25.000Z,1025.7
2023-02-10T15:50:41.000Z,1025.7
2023-02-10T15:51:57.000Z,1025.8
2023-02-10T15:53:14.000Z,1025.8
2023-02-10T15:54:30.000Z,1025.9
2023-02-10T15:55:46.000Z,1025.8